Portada
METAR-TAF:

METAR-TAF

Aeroports :

Hancock, Michigan, Estats Units d'Amèrica

latitud: 47-10-06N, longitud: 088-29-20W, altitud: 334 m

Observació

L'informe es va fer fa 53 minuts, a les 20:53 UTC
Vent 6 kt del Est
Temperatura 9°C
Humitat 29%
Pressió 1025 hPa
Visibilitat: 16.1 km
Cel clar

METAR: KCMX 222053Z AUTO 10006KT 10SM CLR 09/M08 A3028 RMK AO2 SLP264 T00941078 56022 $

Hora: 17:46 (21:46 UTC)

Pronòstic

L'informe es va fer fa 4 hores i 26 minuts, a les 17:20 UTC
Pronòstic vàlid del 22 a les 18 UTC al 23 a les 18 UTC
Vent 3 kt del Est/Sud-Est
Visibilitat: 10 km
Cel clar
A partir de les 23 a les 0600 UTC
Vent 8 kt del Sud/Sud-Oest
Visibilitat: 10 km
Escasses núvols a una alçada de 25000 ft

TAF: KCMX 221720Z 2218/2318 12003KT P6SM SKC FM230600 20008KT P6SM FEW250

Observacions i pronòstics meteorològics de més de 4000 aeroports (METAR i TAF).

Les estacions disponibles són els punts grocs i vermells al mapa.

Posi el ratolí al punt desitjat per veure el nom de l'estació.

Feu clic per veure les observacions i els pronòstics meteorològics.

Per canviar el mapa: feu clic els botons verds amb una creu de color negre per apropar; al botó verd amb un guió per allunyar la imatge; o en les fletxes verdes per a mapes adjacents.


METAR-TAF: